Archival Weather

Longyear

Longyear, Svalbard (ENSB)

Report from: Wednesday, December 6, 2023 10:50 AM UTC
Current time: Saturday, February 24, 2024 3:54 PM UTC

Current weather – Weather history – Daily summaries
Weather forecast

Present weatherLight snow showers
Temperature-4.0°C (24.8°F)
Wind chill-11.6°C (11.1°F)
Dew point-9.0°C (15.8°F)
Winds 16 kts (8.2 m/s, 18.4 mph) East-Southeast (120°)
Visibility6.2 mi. (10 km)
Clouds Few clouds 2,000 ft. (610 m)
Altimeter30.59 in.Hg (1036 mB)
Relative humidity68 %
Density altitude-3,065 ft. (-934 m)
Remarks No significant changes expected in the next two hours
Flight conditions Visual Meteorological Conditions
Raw dataENSB 061050Z 12016KT 9999 -SHSN FEW020 M04/M09 Q1036 NOSIG RMK WIND 1400FT 11019KT
An error has occurred. This application may no longer respond until reloaded. Reload 🗙